Time;durP1;ratioP1;P1;durP2;ratioP2;P2;SDS_P1;SDS_P2;PMS_P1;PMS_P2;Temp;Humidity;BMP_temperature;BMP_pressure;BME280_temperature;BME280_humidity;BME280_pressure;Samples;Min_cycle;Max_cycle;Signal;HPM_P1;HPM_P2
2022/01/21 00:00:57;;;;;;;1.98;1.95;;;5.70;81.40;;;;;;4989575;28;20292;-83
2022/01/21 00:03:25;;;;;;;2.38;2.28;;;5.70;81.50;;;;;;5005390;28;20224;-84
2022/01/21 00:05:54;;;;;;;1.90;1.80;;;5.60;81.30;;;;;;5011517;28;20218;-76
2022/01/21 00:08:21;;;;;;;2.60;2.42;;;5.60;81.80;;;;;;4997656;28;20275;-82
2022/01/21 00:10:48;;;;;;;2.20;2.10;;;5.60;82.10;;;;;;4992321;28;20567;-85
2022/01/21 00:13:21;;;;;;;1.58;1.50;;;5.50;82.20;;;;;;4988503;28;20229;-76
2022/01/21 00:15:48;;;;;;;2.38;2.17;;;5.50;82.10;;;;;;4989100;28;20636;-87
2022/01/21 00:18:15;;;;;;;1.90;1.80;;;5.50;82.50;;;;;;4991006;28;20287;-79
2022/01/21 00:31:41;;;;;;;2.10;2.00;;;5.60;82.60;;;;;;4989783;28;20511;-78
2022/01/21 00:34:08;;;;;;;2.22;2.13;;;5.60;83.00;;;;;;4984100;28;20233;-77
2022/01/21 00:36:35;;;;;;;2.17;2.08;;;5.50;82.80;;;;;;4982224;28;20267;-76
2022/01/21 00:39:04;;;;;;;2.50;2.40;;;5.60;82.30;;;;;;4982500;28;20225;-77
2022/01/21 00:41:36;;;;;;;2.15;2.05;;;5.50;82.80;;;;;;4983474;23;20236;-89
2022/01/21 00:44:04;;;;;;;2.30;2.20;;;5.50;83.00;;;;;;5003997;28;20220;-89
2022/01/21 00:46:31;;;;;;;1.83;1.73;;;5.40;83.00;;;;;;5006297;28;20263;-89
2022/01/21 00:48:58;;;;;;;2.42;2.33;;;5.40;82.90;;;;;;5010008;28;20243;-91
2022/01/21 00:51:25;;;;;;;1.80;1.80;;;5.40;83.00;;;;;;5012535;28;20231;-89
2022/01/21 00:53:52;;;;;;;2.20;2.10;;;5.40;82.70;;;;;;5009306;28;20220;-90
2022/01/21 00:56:21;;;;;;;2.17;2.08;;;5.50;82.60;;;;;;5010083;28;20275;-89
2022/01/21 00:58:48;;;;;;;2.10;2.00;;;5.50;82.80;;;;;;5008859;28;20220;-90
2022/01/21 01:01:15;;;;;;;1.92;1.83;;;5.50;82.90;;;;;;5009845;28;20224;-89
2022/01/21 01:03:42;;;;;;;2.40;2.25;;;5.40;82.80;;;;;;5011527;28;20220;-91
2022/01/21 01:06:09;;;;;;;2.70;2.50;;;5.40;83.00;;;;;;5010391;28;20208;-90
2022/01/21 01:08:36;;;;;;;2.00;1.90;;;5.40;83.00;;;;;;5002761;28;20217;-89
2022/01/21 01:11:19;;;;;;;2.22;2.13;;;5.40;83.30;;;;;;5008357;28;20627;-90
2022/01/21 01:22:01;;;;;;;2.08;1.98;;;5.30;83.30;;;;;;5001149;28;20207;-88
2022/01/21 01:30:00;;;;;;;1.70;1.70;;;5.20;83.10;;;;;;5008174;28;20292;-90
2022/01/21 01:32:29;;;;;;;1.75;1.73;;;5.20;83.10;;;;;;5004860;28;20228;-90
2022/01/21 01:34:56;;;;;;;1.95;1.85;;;5.20;83.10;;;;;;5011775;28;20211;-90
2022/01/21 01:37:38;;;;;;;2.05;1.95;;;5.20;83.10;;;;;;5004664;28;20239;-91
2022/01/21 01:40:17;;;;;;;2.50;2.40;;;5.20;83.20;;;;;;5007651;28;20239;-89
2022/01/21 01:51:02;;;;;;;2.30;2.10;;;5.10;82.70;;;;;;5006586;28;20187;-90
2022/01/21 01:53:32;;;;;;;2.38;2.28;;;5.00;82.90;;;;;;5001744;28;20236;-90
2022/01/21 01:56:01;;;;;;;2.28;2.17;;;5.00;82.90;;;;;;5011402;28;20298;-93
2022/01/21 01:58:28;;;;;;;2.20;2.10;;;5.00;83.00;;;;;;5007495;28;20225;-91
2022/01/21 02:00:57;;;;;;;1.80;1.80;;;4.90;82.40;;;;;;5010233;28;20258;-91
2022/01/21 02:03:24;;;;;;;1.80;1.70;;;4.90;82.40;;;;;;5010735;28;20633;-90
2022/01/21 02:05:52;;;;;;;2.35;2.25;;;4.90;82.50;;;;;;5012687;28;20228;-89
2022/01/21 02:08:19;;;;;;;2.38;2.28;;;4.90;82.40;;;;;;5013435;28;20223;-90
2022/01/21 02:10:46;;;;;;;2.28;2.17;;;4.80;82.50;;;;;;5010464;28;20734;-90
2022/01/21 02:13:22;;;;;;;2.33;2.22;;;4.80;82.20;;;;;;5000531;28;20224;-91
2022/01/21 02:16:09;;;;;;;2.00;1.90;;;4.80;82.50;;;;;;5008541;28;20273;-90
2022/01/21 02:21:38;;;;;;;2.42;2.22;;;4.80;82.20;;;;;;4993946;28;20297;-90
2022/01/21 02:24:11;;;;;;;2.10;1.88;;;4.80;82.20;;;;;;5002690;28;20223;-91
2022/01/21 02:26:38;;;;;;;1.98;1.92;;;4.80;81.90;;;;;;5008813;28;20284;-91
2022/01/21 02:29:07;;;;;;;2.20;2.10;;;4.70;81.80;;;;;;5008419;28;20582;-90
2022/01/21 02:31:35;;;;;;;2.03;2.03;;;4.80;81.60;;;;;;5016184;28;20204;-89
2022/01/21 02:34:04;;;;;;;2.47;2.38;;;4.80;81.70;;;;;;5011948;28;20216;-90
2022/01/21 02:36:32;;;;;;;3.20;2.67;;;4.70;81.50;;;;;;5014373;28;20207;-88
2022/01/21 02:39:00;;;;;;;2.58;2.47;;;4.70;81.50;;;;;;5011951;28;20228;-90
2022/01/21 02:41:27;;;;;;;2.00;1.90;;;4.70;81.10;;;;;;5005213;28;20626;-91
2022/01/21 02:43:54;;;;;;;2.42;2.33;;;4.70;81.20;;;;;;5010251;28;20220;-90
2022/01/21 02:46:22;;;;;;;2.90;2.70;;;4.70;81.10;;;;;;5003844;28;20197;-90
2022/01/21 02:48:50;;;;;;;2.30;2.20;;;4.70;81.10;;;;;;5011115;28;20307;-92
2022/01/21 02:51:17;;;;;;;3.63;2.05;;;4.70;81.00;;;;;;5013497;28;20208;-91
2022/01/21 02:56:41;;;;;;;2.53;2.42;;;4.60;80.90;;;;;;4980258;28;20300;-91
2022/01/21 02:59:09;;;;;;;2.80;2.70;;;4.60;80.90;;;;;;5009523;28;20228;-88
2022/01/21 03:01:38;;;;;;;2.13;2.03;;;4.60;81.10;;;;;;5012068;28;20204;-89
2022/01/21 03:04:07;;;;;;;2.28;2.17;;;4.60;80.90;;;;;;5008646;28;20227;-88
2022/01/21 03:06:36;;;;;;;2.63;2.42;;;4.50;80.70;;;;;;5010872;28;20200;-91
2022/01/21 03:09:06;;;;;;;2.75;2.65;;;4.50;80.90;;;;;;5009933;28;20216;-90
2022/01/21 03:11:33;;;;;;;2.53;2.42;;;4.50;81.20;;;;;;5008581;28;20204;-89
2022/01/21 03:14:00;;;;;;;2.25;2.15;;;4.50;81.00;;;;;;5010106;28;20630;-91
2022/01/21 03:16:28;;;;;;;1.77;1.67;;;4.50;80.80;;;;;;5013202;28;20200;-92
2022/01/21 03:18:55;;;;;;;1.92;1.83;;;4.50;80.40;;;;;;5008813;28;20290;-90
2022/01/21 03:21:22;;;;;;;1.90;1.80;;;4.50;80.30;;;;;;5012798;28;20662;-90
2022/01/21 03:23:52;;;;;;;2.10;2.00;;;4.40;80.70;;;;;;5012742;28;20242;-90
2022/01/21 03:26:22;;;;;;;2.33;2.22;;;4.40;81.20;;;;;;5006225;28;20254;-89
2022/01/21 03:28:52;;;;;;;1.92;1.92;;;4.40;80.40;;;;;;5007946;28;20216;-92
2022/01/21 03:31:19;;;;;;;2.38;2.28;;;4.40;80.90;;;;;;5010157;28;20259;-92
2022/01/21 03:33:47;;;;;;;1.92;1.85;;;4.30;80.50;;;;;;5010240;28;20229;-89
2022/01/21 03:36:14;;;;;;;2.10;2.00;;;4.30;80.90;;;;;;5013175;28;20598;-89
2022/01/21 03:38:42;;;;;;;2.17;2.08;;;4.20;80.20;;;;;;5011978;28;20264;-91
2022/01/21 03:41:09;;;;;;;1.70;1.70;;;4.30;79.80;;;;;;5007022;28;20228;-91
2022/01/21 03:43:38;;;;;;;2.45;2.35;;;4.40;79.10;;;;;;5012266;28;20224;-92
2022/01/21 03:46:05;;;;;;;2.80;2.60;;;4.40;79.50;;;;;;5011884;28;20196;-91
2022/01/21 03:48:33;;;;;;;2.65;2.55;;;4.30;79.60;;;;;;5004800;28;20682;-92
2022/01/21 03:51:00;;;;;;;1.85;1.75;;;4.30;79.20;;;;;;5011154;28;20622;-86
2022/01/21 03:53:27;;;;;;;2.60;2.50;;;4.30;78.90;;;;;;5010359;28;20275;-90
2022/01/21 03:55:54;;;;;;;2.03;1.95;;;4.30;78.80;;;;;;5012361;28;20200;-91
2022/01/21 03:58:22;;;;;;;2.08;1.98;;;4.30;78.00;;;;;;5011419;28;20274;-89
2022/01/21 04:00:53;;;;;;;2.38;2.28;;;4.40;77.90;;;;;;5005678;28;20219;-91
2022/01/21 04:03:21;;;;;;;2.40;2.30;;;4.40;77.60;;;;;;5008500;28;21040;-91
2022/01/21 04:05:48;;;;;;;2.38;2.28;;;4.40;77.00;;;;;;5012570;28;20197;-89
2022/01/21 04:08:16;;;;;;;2.40;2.30;;;4.40;76.90;;;;;;5008840;28;20446;-91
2022/01/21 04:10:44;;;;;;;1.85;1.75;;;4.40;77.20;;;;;;5008100;28;20215;-90
2022/01/21 04:13:15;;;;;;;3.13;2.67;;;4.40;77.00;;;;;;5009287;28;20239;-89
2022/01/21 04:15:44;;;;;;;2.60;2.50;;;4.30;77.30;;;;;;5009279;28;21186;-92
2022/01/21 04:18:14;;;;;;;2.15;2.13;;;4.30;77.10;;;;;;5002861;28;20245;-92
2022/01/21 04:20:42;;;;;;;2.67;2.47;;;4.30;76.90;;;;;;5007547;28;20291;-91
2022/01/21 04:23:11;;;;;;;3.15;2.08;;;4.30;77.30;;;;;;5007611;28;20308;-89
2022/01/21 04:25:38;;;;;;;2.60;2.50;;;4.30;77.10;;;;;;5011314;28;20200;-91
2022/01/21 04:28:05;;;;;;;2.40;2.30;;;4.20;77.10;;;;;;5004516;28;20204;-89
2022/01/21 04:30:33;;;;;;;2.30;2.20;;;4.20;77.30;;;;;;5009364;28;20212;-91
2022/01/21 04:33:00;;;;;;;2.65;2.13;;;4.20;77.60;;;;;;5007951;28;20562;-89
2022/01/21 04:35:30;;;;;;;2.28;2.17;;;4.20;77.30;;;;;;5008696;28;20602;-90
2022/01/21 04:38:01;;;;;;;2.33;2.22;;;4.20;77.60;;;;;;5008987;28;20220;-87
2022/01/21 04:40:30;;;;;;;1.85;1.55;;;4.20;77.40;;;;;;5007049;28;20227;-91
2022/01/21 04:48:28;;;;;;;1.92;1.90;;;4.10;77.50;;;;;;5002293;28;20728;-91
2022/01/21 04:51:00;;;;;;;2.05;1.98;;;4.00;78.00;;;;;;5009125;28;20200;-90
2022/01/21 04:53:28;;;;;;;1.75;1.65;;;4.10;77.80;;;;;;5004414;28;20223;-90
2022/01/21 04:55:56;;;;;;;2.25;2.15;;;4.10;77.20;;;;;;5009040;28;20613;-89
2022/01/21 04:58:23;;;;;;;2.28;2.17;;;4.10;77.10;;;;;;5005144;28;20224;-90
2022/01/21 05:00:50;;;;;;;2.50;2.40;;;4.10;76.90;;;;;;5008405;28;20250;-90
2022/01/21 05:03:18;;;;;;;2.17;2.08;;;4.10;77.20;;;;;;5007675;28;20231;-89
2022/01/21 05:05:45;;;;;;;2.13;2.03;;;4.00;76.90;;;;;;5011212;28;20414;-89
2022/01/21 05:08:23;;;;;;;2.22;2.13;;;4.00;77.70;;;;;;5006374;28;20221;-90
2022/01/21 05:10:50;;;;;;;2.42;2.33;;;4.00;77.00;;;;;;5006320;28;20196;-92
2022/01/21 05:13:22;;;;;;;2.28;2.17;;;3.90;77.30;;;;;;5006796;28;20216;-91
2022/01/21 05:16:02;;;;;;;2.35;2.25;;;3.90;77.00;;;;;;5011169;28;20303;-91
2022/01/21 05:18:29;;;;;;;2.33;2.22;;;3.90;77.70;;;;;;5011239;28;20247;-92
2022/01/21 05:20:57;;;;;;;1.95;1.95;;;3.80;77.50;;;;;;5005750;28;20208;-89
2022/01/21 05:23:26;;;;;;;3.15;2.88;;;3.80;77.80;;;;;;5011405;28;20216;-93
2022/01/21 05:25:53;;;;;;;2.35;2.25;;;3.80;77.50;;;;;;5007585;28;20463;-90
2022/01/21 05:28:21;;;;;;;2.40;2.30;;;3.80;77.50;;;;;;5010470;28;20876;-90
2022/01/21 05:30:48;;;;;;;2.58;2.47;;;3.80;77.40;;;;;;5009268;28;20196;-91
2022/01/21 05:33:15;;;;;;;2.47;2.38;;;3.80;77.40;;;;;;5009956;28;20509;-90
2022/01/21 05:35:42;;;;;;;2.90;2.72;;;3.90;77.60;;;;;;5011029;28;21676;-90
2022/01/21 05:38:09;;;;;;;2.25;2.15;;;3.90;77.30;;;;;;5010383;28;20215;-88
2022/01/21 05:40:38;;;;;;;2.55;2.45;;;3.80;77.50;;;;;;5003677;28;20220;-93
2022/01/21 05:43:05;;;;;;;2.00;1.90;;;3.80;77.50;;;;;;5009642;28;20204;-92
2022/01/21 05:48:17;;;;;;;2.20;2.05;;;3.70;78.30;;;;;;5004691;28;20247;-90
2022/01/21 05:50:44;;;;;;;2.50;2.40;;;3.70;77.80;;;;;;5006675;28;20207;-90
2022/01/21 05:53:12;;;;;;;2.30;2.20;;;3.70;77.60;;;;;;5008679;28;20201;-89
2022/01/21 05:55:42;;;;;;;2.10;2.00;;;3.70;78.10;;;;;;5009211;28;20554;-89
2022/01/21 05:58:12;;;;;;;2.25;2.15;;;3.70;77.80;;;;;;5008377;28;20212;-90
2022/01/21 06:00:42;;;;;;;2.40;2.30;;;3.70;77.80;;;;;;5005924;28;20212;-89
2022/01/21 06:03:10;;;;;;;5.55;1.80;;;3.60;78.00;;;;;;5010258;28;20196;-90
2022/01/21 06:05:37;;;;;;;2.15;2.05;;;3.60;77.80;;;;;;5002478;28;20196;-90
2022/01/21 06:08:05;;;;;;;1.77;1.77;;;3.60;77.70;;;;;;5010372;28;20205;-91
2022/01/21 06:10:33;;;;;;;2.35;2.25;;;3.60;77.10;;;;;;5001668;28;20216;-89
2022/01/21 06:13:01;;;;;;;2.13;2.03;;;3.60;77.50;;;;;;5005172;28;20211;-91
2022/01/21 06:15:29;;;;;;;1.95;1.90;;;3.60;77.50;;;;;;5001521;28;20231;-90
2022/01/21 06:17:56;;;;;;;2.33;2.13;;;3.60;77.30;;;;;;5013547;28;20600;-90
2022/01/21 06:20:23;;;;;;;2.50;2.40;;;3.60;77.20;;;;;;5005872;28;20228;-90
2022/01/21 06:22:51;;;;;;;3.15;2.00;;;3.60;77.50;;;;;;5003565;28;20571;-89
2022/01/21 06:25:18;;;;;;;1.70;1.70;;;3.60;77.30;;;;;;4999733;28;20227;-89
2022/01/21 06:27:45;;;;;;;2.00;1.90;;;3.60;77.30;;;;;;5009496;28;20200;-91
2022/01/21 06:30:14;;;;;;;1.88;1.88;;;3.60;77.30;;;;;;5003439;28;20224;-90
2022/01/21 06:32:41;;;;;;;2.42;2.33;;;3.60;76.90;;;;;;5006637;28;20227;-90
2022/01/21 06:35:10;;;;;;;2.30;2.20;;;3.60;77.00;;;;;;5003837;28;20236;-91
2022/01/21 06:37:37;;;;;;;2.33;2.22;;;3.60;76.70;;;;;;5001349;28;20224;-91
2022/01/21 06:40:05;;;;;;;2.33;2.22;;;3.60;77.00;;;;;;5008296;28;20229;-87
2022/01/21 06:42:32;;;;;;;2.75;2.65;;;3.60;77.10;;;;;;5007346;28;20227;-90
2022/01/21 06:45:00;;;;;;;2.35;2.25;;;3.60;77.10;;;;;;5009341;28;20220;-91
2022/01/21 06:47:29;;;;;;;2.60;2.45;;;3.60;77.10;;;;;;5009913;28;20216;-90
2022/01/21 06:49:59;;;;;;;2.40;2.30;;;3.60;76.90;;;;;;4999378;28;20228;-90
2022/01/21 06:52:26;;;;;;;2.60;2.50;;;3.60;76.90;;;;;;5012670;28;20210;-91
2022/01/21 06:54:54;;;;;;;2.60;2.50;;;3.60;77.00;;;;;;5006494;28;20245;-90
2022/01/21 06:57:21;;;;;;;2.28;2.17;;;3.60;77.00;;;;;;5010996;28;20200;-90
2022/01/21 06:59:48;;;;;;;2.33;2.22;;;3.60;77.20;;;;;;5002752;28;20231;-93
2022/01/21 07:02:18;;;;;;;2.80;2.70;;;3.50;77.00;;;;;;5006527;28;20295;-91
2022/01/21 07:04:46;;;;;;;2.95;2.85;;;3.50;77.10;;;;;;5006709;28;20379;-89
2022/01/21 07:07:14;;;;;;;2.92;2.70;;;3.50;77.30;;;;;;5027383;28;20212;-89
2022/01/21 07:09:41;;;;;;;2.65;2.55;;;3.40;77.50;;;;;;4999317;28;20216;-91
2022/01/21 07:12:09;;;;;;;2.72;2.63;;;3.40;77.50;;;;;;4998935;28;20219;-91
2022/01/21 07:14:36;;;;;;;3.00;2.80;;;3.40;76.70;;;;;;5006270;28;20228;-91
2022/01/21 07:17:05;;;;;;;3.67;3.47;;;3.50;76.90;;;;;;5006196;28;20721;-89
2022/01/21 07:19:32;;;;;;;2.50;2.40;;;3.50;77.30;;;;;;5005170;28;20223;-91
2022/01/21 07:22:01;;;;;;;2.95;2.75;;;3.50;76.80;;;;;;5007090;28;20196;-90
2022/01/21 07:24:28;;;;;;;2.50;2.40;;;3.50;76.80;;;;;;5013854;28;20341;-91
2022/01/21 07:26:55;;;;;;;3.60;3.40;;;3.50;76.70;;;;;;5008446;28;20207;-91
2022/01/21 07:29:22;;;;;;;3.33;3.05;;;3.60;76.00;;;;;;5001510;28;20228;-90
2022/01/21 07:31:53;;;;;;;2.70;2.50;;;3.60;76.10;;;;;;5004646;28;20208;-91
2022/01/21 07:34:21;;;;;;;3.70;3.40;;;3.60;76.00;;;;;;5002859;28;20268;-90
2022/01/21 07:36:48;;;;;;;3.65;3.45;;;3.60;75.30;;;;;;5005619;28;20196;-91
2022/01/21 07:39:16;;;;;;;3.05;2.75;;;3.60;75.10;;;;;;5003645;28;20241;-91
2022/01/21 07:41:43;;;;;;;2.35;2.25;;;3.60;75.10;;;;;;4994977;28;20656;-89
2022/01/21 07:44:12;;;;;;;2.70;2.50;;;3.60;75.10;;;;;;5000385;28;20227;-91
2022/01/21 07:46:39;;;;;;;2.47;2.38;;;3.60;74.80;;;;;;5006157;28;20204;-91
2022/01/21 07:49:07;;;;;;;2.80;2.63;;;3.60;75.00;;;;;;5019928;28;20219;-88
2022/01/21 07:51:34;;;;;;;3.10;3.00;;;3.70;75.00;;;;;;5011245;28;20262;-91
2022/01/21 07:54:02;;;;;;;3.13;2.92;;;3.60;75.20;;;;;;5005174;28;20671;-91
2022/01/21 07:56:32;;;;;;;2.85;2.65;;;3.70;75.10;;;;;;5007972;28;20291;-91
2022/01/21 07:59:00;;;;;;;2.80;2.70;;;3.70;74.80;;;;;;5003441;28;20234;-91
2022/01/21 08:01:27;;;;;;;2.45;2.35;;;3.70;74.80;;;;;;5005609;28;20278;-91
2022/01/21 08:03:54;;;;;;;3.03;2.92;;;3.70;75.10;;;;;;5005964;28;20200;-90
2022/01/21 08:06:22;;;;;;;4.70;3.28;;;3.70;75.00;;;;;;5002262;28;20208;-90
2022/01/21 08:08:49;;;;;;;2.80;2.70;;;3.70;74.60;;;;;;5004350;28;20204;-85
2022/01/21 08:11:16;;;;;;;2.95;2.75;;;3.80;74.80;;;;;;5006669;28;20212;-90
2022/01/21 08:13:44;;;;;;;3.20;3.00;;;3.80;74.40;;;;;;5002696;28;20217;-91
2022/01/21 08:16:11;;;;;;;3.97;3.67;;;3.90;74.00;;;;;;5006928;28;20216;-92
2022/01/21 08:18:38;;;;;;;3.75;3.50;;;4.00;73.80;;;;;;5000770;28;20201;-90
2022/01/21 08:21:06;;;;;;;2.92;2.83;;;4.40;73.00;;;;;;5009740;28;20318;-91
2022/01/21 08:23:34;;;;;;;2.72;2.63;;;5.50;71.90;;;;;;5008052;28;20251;-91
2022/01/21 08:26:01;;;;;;;2.65;2.55;;;6.40;69.60;;;;;;5005559;28;20220;-91
2022/01/21 08:28:28;;;;;;;2.20;2.10;;;7.20;68.70;;;;;;5007137;28;20784;-89
2022/01/21 08:30:56;;;;;;;2.78;2.60;;;7.70;67.60;;;;;;5020916;28;20212;-89
2022/01/21 08:33:24;;;;;;;2.70;2.50;;;8.10;66.30;;;;;;5011818;28;20199;-90
2022/01/21 08:35:51;;;;;;;2.65;2.45;;;8.40;66.10;;;;;;5005961;28;20220;-91
2022/01/21 08:38:21;;;;;;;3.40;3.10;;;8.70;65.60;;;;;;5009927;28;20208;-90
2022/01/21 08:40:48;;;;;;;2.47;2.38;;;9.00;65.90;;;;;;5011294;28;20227;-88
2022/01/21 08:43:15;;;;;;;2.45;2.00;;;9.10;65.40;;;;;;5015852;28;20204;-89
2022/01/21 08:45:43;;;;;;;2.17;2.08;;;9.20;65.00;;;;;;5015756;28;20228;-88
2022/01/21 08:48:12;;;;;;;2.40;2.20;;;9.10;63.50;;;;;;5015662;28;20199;-89
2022/01/21 08:50:39;;;;;;;1.77;1.67;;;8.90;64.70;;;;;;5016883;28;20247;-90
2022/01/21 08:53:35;;;;;;;1.70;1.60;;;9.20;64.80;;;;;;5013482;28;20192;-89
2022/01/21 08:55:58;;;;;;;2.42;2.22;;;9.40;64.40;;;;;;5018995;28;20220;-89
2022/01/21 08:58:25;;;;;;;2.03;1.92;;;9.60;63.90;;;;;;5009326;28;20215;-88
2022/01/21 09:00:52;;;;;;;1.80;1.70;;;9.70;62.70;;;;;;5019607;28;20220;-90
2022/01/21 09:03:21;;;;;;;1.60;1.50;;;9.90;62.70;;;;;;5030642;28;20188;-89
2022/01/21 09:05:50;;;;;;;1.92;1.83;;;10.20;62.20;;;;;;5030330;28;20219;-87
2022/01/21 09:08:19;;;;;;;1.58;1.58;;;10.10;60.50;;;;;;5031910;28;20635;-89
2022/01/21 09:10:48;;;;;;;1.92;1.83;;;10.10;61.40;;;;;;5032633;28;20224;-87
2022/01/21 09:13:17;;;;;;;2.08;1.90;;;10.20;61.60;;;;;;5037471;28;20196;-88
2022/01/21 09:22:17;;;;;;;1.35;1.35;;;11.00;59.60;;;;;;4957415;23;20216;-85
2022/01/21 09:24:44;;;;;;;1.50;1.40;;;11.10;58.90;;;;;;5018978;28;20168;-84
2022/01/21 09:27:11;;;;;;;2.08;1.55;;;11.50;59.30;;;;;;5031238;28;20212;-84
2022/01/21 09:29:38;;;;;;;1.58;1.50;;;12.10;56.60;;;;;;5019008;28;20191;-86
2022/01/21 09:32:06;;;;;;;1.70;1.60;;;12.70;54.80;;;;;;5065288;23;20467;-71
2022/01/21 09:34:33;;;;;;;2.80;2.03;;;14.50;54.80;;;;;;5002575;28;20746;-71
2022/01/21 09:37:02;;;;;;;1.52;1.42;;;16.20;51.50;;;;;;5002563;28;20224;-72
2022/01/21 09:39:31;;;;;;;2.03;1.92;;;17.50;48.40;;;;;;4992744;28;20682;-71
2022/01/21 09:42:00;;;;;;;1.60;1.50;;;18.60;47.30;;;;;;4989186;28;20224;-72
2022/01/21 09:44:29;;;;;;;1.50;1.40;;;19.80;45.90;;;;;;4988739;28;20335;-73
2022/01/21 09:46:59;;;;;;;1.25;1.23;;;20.40;43.30;;;;;;4997365;28;20297;-71
2022/01/21 09:49:27;;;;;;;1.30;1.30;;;20.00;41.70;;;;;;4991436;28;20201;-72
2022/01/21 09:51:56;;;;;;;1.33;1.25;;;19.90;42.40;;;;;;4993403;28;20765;-71
2022/01/21 09:54:24;;;;;;;1.52;1.48;;;19.30;42.20;;;;;;4992413;28;20224;-71
2022/01/21 09:56:54;;;;;;;1.80;1.70;;;18.80;43.60;;;;;;4987809;28;20231;-72
2022/01/21 09:59:23;;;;;;;1.20;1.20;;;17.60;42.50;;;;;;4983850;28;20303;-72
2022/01/21 10:01:52;;;;;;;1.40;1.30;;;15.50;43.60;;;;;;4994586;28;20272;-72
2022/01/21 10:04:21;;;;;;;2.90;1.60;;;13.80;47.20;;;;;;4996525;28;20600;-71
2022/01/21 10:06:48;;;;;;;2.92;1.80;;;13.30;49.40;;;;;;4996173;28;20193;-71
2022/01/21 10:09:16;;;;;;;1.80;1.70;;;12.90;50.40;;;;;;4994387;28;20197;-72
2022/01/21 10:11:48;;;;;;;2.13;1.50;;;12.50;50.50;;;;;;4999127;28;20201;-72
2022/01/21 10:14:21;;;;;;;1.48;1.38;;;11.70;51.10;;;;;;4995838;28;20228;-69
2022/01/21 10:16:48;;;;;;;1.50;1.40;;;11.40;50.70;;;;;;5003829;28;20271;-72
2022/01/21 10:19:24;;;;;;;1.55;1.45;;;11.20;51.20;;;;;;4993076;28;20687;-72
2022/01/21 10:22:00;;;;;;;1.63;1.52;;;10.80;50.90;;;;;;4997412;28;20226;-71
2022/01/21 10:24:28;;;;;;;2.28;1.80;;;10.50;51.30;;;;;;5002057;28;20212;-70
2022/01/21 10:26:57;;;;;;;2.05;1.95;;;10.30;51.90;;;;;;5003771;28;20709;-72
2022/01/21 10:29:34;;;;;;;1.80;1.70;;;10.80;53.70;;;;;;4989173;28;20208;-70
2022/01/21 10:32:03;;;;;;;1.90;1.52;;;11.10;52.40;;;;;;4992011;28;20231;-70
2022/01/21 10:34:35;;;;;;;1.67;1.58;;;11.30;53.60;;;;;;4998978;28;20216;-72
2022/01/21 10:37:07;;;;;;;1.40;1.40;;;11.60;52.30;;;;;;5000373;28;20231;-70
2022/01/21 10:39:55;;;;;;;1.30;1.30;;;11.60;52.60;;;;;;4989728;28;20350;-69
2022/01/21 10:42:23;;;;;;;3.33;1.55;;;11.70;52.20;;;;;;4995007;28;20271;-69
2022/01/21 10:44:52;;;;;;;1.83;1.73;;;11.80;52.30;;;;;;4999935;28;20225;-70
2022/01/21 10:47:19;;;;;;;1.55;1.35;;;12.00;52.60;;;;;;4996102;28;20762;-70
2022/01/21 10:49:59;;;;;;;1.52;1.42;;;12.10;53.00;;;;;;4987665;28;20208;-70
2022/01/21 10:52:31;;;;;;;1.60;1.50;;;11.70;50.30;;;;;;4994456;28;20236;-70
2022/01/21 10:54:59;;;;;;;3.20;1.42;;;11.30;51.00;;;;;;4993178;28;20219;-70
2022/01/21 10:57:28;;;;;;;1.73;1.60;;;11.00;51.20;;;;;;4994441;28;20232;-69
2022/01/21 10:59:59;;;;;;;1.23;1.13;;;11.10;52.10;;;;;;5001197;28;20311;-72
2022/01/21 11:02:33;;;;;;;1.77;1.70;;;11.40;53.50;;;;;;4992577;28;20236;-70
2022/01/21 11:05:03;;;;;;;1.45;1.35;;;11.70;53.20;;;;;;4993367;28;20216;-71
2022/01/21 11:07:46;;;;;;;1.95;1.70;;;11.60;51.90;;;;;;4998793;28;20331;-71
2022/01/21 11:10:44;;;;;;;1.90;1.80;;;11.70;50.60;;;;;;4992957;28;20205;-70
2022/01/21 11:13:36;;;;;;;1.95;1.83;;;11.10;51.90;;;;;;4998873;28;20307;-69
2022/01/21 11:16:15;;;;;;;1.40;1.40;;;11.30;53.90;;;;;;4991302;28;20189;-69
2022/01/21 11:18:58;;;;;;;1.50;1.40;;;11.60;53.50;;;;;;4992067;28;20242;-67
2022/01/21 11:21:48;;;;;;;2.03;1.92;;;11.80;52.40;;;;;;5008185;28;20304;-69
2022/01/21 11:24:17;;;;;;;1.65;1.55;;;11.80;53.10;;;;;;5014096;28;20348;-69
2022/01/21 11:26:44;;;;;;;1.77;1.67;;;12.00;53.70;;;;;;5015204;28;20251;-72
2022/01/21 11:29:12;;;;;;;1.30;1.30;;;12.20;53.20;;;;;;5006844;28;20224;-70
2022/01/21 11:31:41;;;;;;;2.05;1.60;;;12.30;53.40;;;;;;5006760;28;20589;-70
2022/01/21 11:34:08;;;;;;;2.00;1.90;;;12.30;51.30;;;;;;5012812;28;20502;-70
2022/01/21 11:36:35;;;;;;;1.40;1.30;;;12.40;52.20;;;;;;5006651;28;20212;-71
2022/01/21 11:39:03;;;;;;;1.58;1.48;;;12.10;51.90;;;;;;4994992;28;20220;-70
2022/01/21 11:41:32;;;;;;;1.50;1.40;;;11.90;51.90;;;;;;4990464;28;20224;-70
2022/01/21 11:44:02;;;;;;;1.35;1.25;;;11.50;50.80;;;;;;4986972;28;20235;-71
2022/01/21 11:47:00;;;;;;;2.90;1.50;;;11.40;51.90;;;;;;4995131;28;20204;-70
2022/01/21 11:49:30;;;;;;;1.85;1.63;;;11.40;52.70;;;;;;4999480;28;20227;-70
2022/01/21 11:52:13;;;;;;;2.55;2.35;;;11.50;52.80;;;;;;5002292;28;20775;-70
2022/01/21 11:54:41;;;;;;;1.80;1.70;;;11.50;53.20;;;;;;4991881;28;20220;-71
2022/01/21 11:57:10;;;;;;;1.83;1.73;;;11.60;52.80;;;;;;4991199;28;20708;-70
2022/01/21 11:59:42;;;;;;;1.70;1.60;;;11.70;52.20;;;;;;4992799;28;20237;-70
2022/01/21 12:02:24;;;;;;;1.30;1.27;;;11.70;51.70;;;;;;4993171;28;20264;-70
2022/01/21 12:04:54;;;;;;;1.50;1.40;;;11.70;52.50;;;;;;4991711;28;20282;-71
2022/01/21 12:07:45;;;;;;;1.98;1.60;;;11.80;52.70;;;;;;4992612;28;20228;-72
2022/01/21 12:10:14;;;;;;;1.65;1.55;;;11.60;52.60;;;;;;4986544;28;20244;-74
2022/01/21 12:13:01;;;;;;;1.95;1.60;;;11.80;53.60;;;;;;5003295;28;20205;-74
2022/01/21 12:19:20;;;;;;;1.75;1.65;;;11.70;51.60;;;;;;4991328;28;20340;-71
2022/01/21 12:21:51;;;;;;;1.70;1.60;;;11.70;52.50;;;;;;5000663;28;20538;-72
2022/01/21 12:24:48;;;;;;;1.77;1.67;;;11.60;53.00;;;;;;4991754;28;20232;-75
2022/01/21 12:27:15;;;;;;;1.50;1.40;;;11.50;52.70;;;;;;4989898;28;20259;-72
2022/01/21 12:29:42;;;;;;;3.65;1.50;;;11.60;52.00;;;;;;4990625;28;20224;-72
2022/01/21 12:32:20;;;;;;;1.60;1.50;;;11.80;52.80;;;;;;4989101;28;20415;-72
2022/01/21 12:35:13;;;;;;;1.42;1.33;;;11.90;52.90;;;;;;4988769;28;20457;-73
2022/01/21 12:41:33;;;;;;;2.30;2.10;;;11.80;51.80;;;;;;4961766;28;20234;-72
2022/01/21 12:44:02;;;;;;;1.98;1.77;;;11.60;51.80;;;;;;5033778;23;20773;-74
2022/01/21 12:46:32;;;;;;;3.17;2.80;;;11.50;52.40;;;;;;5038910;28;20232;-76
2022/01/21 12:49:00;;;;;;;6.68;4.53;;;11.50;52.80;;;;;;5039249;28;20207;-76
2022/01/21 12:51:55;;;;;;;3.67;3.38;;;11.60;53.00;;;;;;5039636;28;20187;-76
2022/01/21 12:57:10;;;;;;;2.30;2.10;;;11.50;52.70;;;;;;5025411;28;20725;-74
2022/01/21 12:59:39;;;;;;;2.05;1.95;;;11.50;52.70;;;;;;5027177;28;20739;-74
2022/01/21 13:02:06;;;;;;;1.85;1.67;;;11.40;52.20;;;;;;5027770;28;20589;-75
2022/01/21 13:04:51;;;;;;;1.77;1.67;;;11.50;52.30;;;;;;5022546;28;20235;-74
2022/01/21 13:07:27;;;;;;;1.73;1.60;;;11.40;52.50;;;;;;5020771;28;20273;-75
2022/01/21 13:10:13;;;;;;;1.60;1.50;;;11.40;53.00;;;;;;5017784;28;20241;-75
2022/01/21 13:12:59;;;;;;;1.83;1.73;;;11.40;52.70;;;;;;5022268;28;20684;-78
2022/01/21 13:15:26;;;;;;;2.20;1.58;;;11.40;53.00;;;;;;5022715;28;20325;-76
2022/01/21 13:18:00;;;;;;;2.22;1.58;;;11.30;52.90;;;;;;5022759;28;20663;-75
2022/01/21 13:20:31;;;;;;;1.90;1.80;;;11.30;52.70;;;;;;5025722;28;20219;-76
2022/01/21 13:22:58;;;;;;;1.38;1.38;;;11.20;52.70;;;;;;5024986;28;20227;-76
2022/01/21 13:25:26;;;;;;;2.50;2.15;;;11.30;52.70;;;;;;5014859;28;20227;-74
2022/01/21 13:27:55;;;;;;;1.65;1.55;;;11.30;53.10;;;;;;5020423;28;20199;-76
2022/01/21 13:30:24;;;;;;;2.20;2.10;;;11.30;53.20;;;;;;5025107;28;20215;-76
2022/01/21 13:32:59;;;;;;;1.77;1.67;;;11.40;53.30;;;;;;5029108;28;20207;-77
2022/01/21 13:35:27;;;;;;;1.58;1.48;;;11.30;52.90;;;;;;5023792;28;20735;-74
2022/01/21 13:38:12;;;;;;;1.95;1.65;;;11.30;52.90;;;;;;5020771;28;20199;-73
2022/01/21 13:40:43;;;;;;;1.77;1.67;;;11.20;52.80;;;;;;5023957;28;20317;-75
2022/01/21 13:43:15;;;;;;;1.70;1.60;;;11.10;52.80;;;;;;5023858;28;20200;-75
2022/01/21 13:45:53;;;;;;;2.70;1.30;;;11.00;52.80;;;;;;5023478;28;20349;-74
2022/01/21 13:48:21;;;;;;;1.60;1.50;;;11.10;53.80;;;;;;5027821;28;20658;-77
2022/01/21 13:50:48;;;;;;;2.15;1.50;;;11.10;53.00;;;;;;5023554;28;20574;-74
2022/01/21 13:53:15;;;;;;;1.30;1.30;;;11.10;52.40;;;;;;5031703;28;20834;-75
2022/01/21 13:55:46;;;;;;;2.15;2.05;;;11.00;52.70;;;;;;5029831;28;20218;-75
2022/01/21 13:58:15;;;;;;;1.80;1.40;;;10.90;52.70;;;;;;5028127;28;20207;-74
2022/01/21 14:00:44;;;;;;;1.85;1.75;;;10.80;53.10;;;;;;5022036;28;20702;-75
2022/01/21 14:03:14;;;;;;;1.70;1.60;;;10.60;53.80;;;;;;5030497;28;20203;-75
2022/01/21 14:05:47;;;;;;;1.50;1.40;;;10.40;52.80;;;;;;5027356;28;20228;-74
2022/01/21 14:08:17;;;;;;;1.67;1.58;;;10.30;52.50;;;;;;5031895;28;20518;-77
2022/01/21 14:10:45;;;;;;;1.88;1.77;;;10.20;53.30;;;;;;5026803;28;20234;-74